Time;durP1;ratioP1;P1;durP2;ratioP2;P2;SDS_P1;SDS_P2;PMS_P1;PMS_P2;Temp;Humidity;BMP_temperature;BMP_pressure;BME280_temperature;BME280_humidity;BME280_pressure;Samples;Min_cycle;Max_cycle;Signal;HPM_P1;HPM_P2
2021/03/31 07:12:43;;;;;;;25.58;13.40;;;;;;;18.54;47.65;101604.31;5705301;24;20034;31
2021/03/31 07:15:49;;;;;;;26.60;14.32;;;;;;;19.00;46.34;101604.03;4694652;30;20068;-76
2021/03/31 07:18:57;;;;;;;21.67;14.43;;;;;;;19.27;46.23;101597.59;4696910;30;20049;-73
2021/03/31 07:22:03;;;;;;;26.75;15.90;;;;;;;19.74;45.29;101595.31;4699153;30;20066;-74
2021/03/31 07:25:09;;;;;;;23.70;16.35;;;;;;;20.62;43.58;101606.50;4699979;30;20049;-75
2021/03/31 07:28:21;;;;;;;22.65;16.58;;;;;;;22.93;39.33;101592.34;4709144;30;20053;-78
2021/03/31 07:31:28;;;;;;;28.17;15.45;;;;;;;27.01;32.87;101587.59;4699798;30;20046;-77
2021/03/31 07:34:36;;;;;;;23.60;15.00;;;;;;;32.90;24.23;101584.34;4699706;30;20053;-78
2021/03/31 07:37:41;;;;;;;22.48;16.17;;;;;;;36.46;21.30;101582.75;4699725;30;20058;-79
2021/03/31 07:40:48;;;;;;;19.80;14.90;;;;;;;38.96;18.48;101585.22;4699583;30;20062;-76
2021/03/31 07:43:57;;;;;;;25.02;15.23;;;;;;;40.46;17.89;101583.03;4699808;30;20054;-77
2021/03/31 07:47:04;;;;;;;29.23;16.60;;;;;;;42.63;15.99;101583.41;4699067;30;20079;-80
2021/03/31 07:50:10;;;;;;;22.25;15.77;;;;;;;41.94;16.46;101595.09;4700012;30;20057;-79
2021/03/31 07:53:15;;;;;;;22.58;16.48;;;;;;;43.29;15.29;101588.22;4698852;30;20057;-74
2021/03/31 07:56:27;;;;;;;29.23;18.08;;;;;;;43.50;15.28;101585.69;4699604;30;20054;-76
2021/03/31 07:59:40;;;;;;;28.67;20.15;;;;;;;43.61;15.10;101591.88;4699708;30;20053;-75
2021/03/31 08:02:45;;;;;;;23.13;18.92;;;;;;;45.67;14.65;101582.41;4698486;30;20057;-76
2021/03/31 08:06:13;;;;;;;21.33;17.85;;;;;;;44.02;15.45;101594.41;4699790;30;20050;-75
2021/03/31 08:09:18;;;;;;;25.73;19.95;;;;;;;42.66;16.06;101599.72;4699942;30;20063;-75
2021/03/31 08:12:31;;;;;;;23.17;18.67;;;;;;;44.81;14.55;101593.06;4699497;30;20049;-78
2021/03/31 08:15:41;;;;;;;28.55;18.70;;;;;;;46.74;13.82;101598.97;4702828;30;20054;-75
2021/03/31 08:18:47;;;;;;;26.58;19.15;;;;;;;44.09;15.58;101600.44;4702366;30;20057;-74
2021/03/31 08:21:53;;;;;;;25.00;18.83;;;;;;;44.52;15.43;101590.88;4702687;30;20053;-76
2021/03/31 08:25:00;;;;;;;25.90;18.48;;;;;;;46.22;14.03;101602.13;4701466;30;20057;-77
2021/03/31 08:28:07;;;;;;;23.02;18.70;;;;;;;46.04;13.66;101594.91;4702366;30;20049;-80
2021/03/31 08:31:20;;;;;;;21.27;19.00;;;;;;;46.27;13.81;101596.25;4702449;30;20140;-77
2021/03/31 08:34:27;;;;;;;26.13;20.75;;;;;;;44.28;15.18;101590.50;4702001;30;20494;-78
2021/03/31 08:37:31;;;;;;;25.50;20.48;;;;;;;44.74;14.97;101591.88;4702430;30;20414;-79
2021/03/31 08:40:38;;;;;;;22.25;19.85;;;;;;;46.33;13.59;101606.25;4701570;30;20050;-77
2021/03/31 08:43:43;;;;;;;22.02;18.45;;;;;;;45.49;14.22;101599.78;4702336;30;20057;-77
2021/03/31 08:46:48;;;;;;;24.58;19.95;;;;;;;45.22;14.17;101601.00;4702105;30;20058;-81
2021/03/31 08:50:08;;;;;;;26.92;19.48;;;;;;;45.85;13.93;101592.47;4702163;30;20057;-76
2021/03/31 08:53:13;;;;;;;25.25;20.25;;;;;;;45.41;14.40;101589.31;4702006;30;20061;-75
2021/03/31 08:56:19;;;;;;;24.73;19.33;;;;;;;45.67;14.53;101581.56;4711029;30;20058;-79
2021/03/31 08:59:30;;;;;;;28.95;21.83;;;;;;;43.67;15.16;101588.59;4701909;30;20057;-79
2021/03/31 09:02:43;;;;;;;;;;;;;;;42.13;16.61;101593.00;4701284;30;20049;-77
2021/03/31 09:05:58;;;;;;;27.40;22.67;;;;;;;42.94;15.74;101589.16;4701744;30;19923;-79
2021/03/31 09:09:04;;;;;;;31.75;24.45;;;;;;;42.21;16.33;101591.44;4689754;30;20406;-77
2021/03/31 09:12:11;;;;;;;33.45;26.40;;;;;;;38.36;18.97;101585.63;4684354;30;20050;-79
2021/03/31 09:15:15;;;;;;;29.63;24.67;;;;;;;35.35;21.86;101587.78;4684415;30;20042;-78
2021/03/31 09:18:20;;;;;;;29.20;26.15;;;;;;;32.81;24.87;101585.88;4684576;30;20054;-78
2021/03/31 09:21:29;;;;;;;32.47;26.65;;;;;;;30.95;27.59;101579.81;4684272;30;20053;-78
2021/03/31 09:24:37;;;;;;;35.10;28.05;;;;;;;29.65;29.38;101586.88;4684288;30;20050;-80
2021/03/31 09:27:41;;;;;;;36.53;28.90;;;;;;;28.89;29.88;101584.34;4684057;30;20058;-74
2021/03/31 09:30:50;;;;;;;32.90;29.05;;;;;;;27.82;32.01;101577.06;4684231;30;20414;-75
2021/03/31 09:33:55;;;;;;;40.22;29.83;;;;;;;27.34;32.99;101571.00;4683790;30;20058;-75
2021/03/31 09:37:08;;;;;;;36.80;28.30;;;;;;;26.48;34.25;101570.13;4684239;30;20054;-79
2021/03/31 09:40:21;;;;;;;40.60;29.52;;;;;;;26.61;34.59;101552.75;4683681;30;20050;-74
2021/03/31 09:43:25;;;;;;;42.95;30.63;;;;;;;26.66;34.42;101567.59;4683522;30;20054;-78
2021/03/31 09:46:31;;;;;;;35.70;29.52;;;;;;;25.85;36.07;101563.94;4701078;30;20045;-76
2021/03/31 09:49:35;;;;;;;37.85;33.63;;;;;;;25.58;36.14;101562.13;4700927;30;20402;-76
2021/03/31 09:52:40;;;;;;;36.40;29.75;;;;;;;25.64;36.62;101547.56;4700953;30;20049;-77
2021/03/31 09:55:44;;;;;;;38.80;29.88;;;;;;;25.43;36.56;101547.59;4700521;30;20050;-76
2021/03/31 09:58:49;;;;;;;38.72;29.88;;;;;;;25.52;35.55;101540.09;4710349;30;20045;-75
2021/03/31 10:01:54;;;;;;;36.55;30.33;;;;;;;25.42;35.80;101540.44;4700410;30;20045;-76
2021/03/31 10:05:04;;;;;;;42.33;33.88;;;;;;;24.78;37.08;101531.50;4700676;30;20057;-77
2021/03/31 10:08:13;;;;;;;41.20;30.83;;;;;;;24.47;37.43;101530.97;4700015;30;20049;-75
2021/03/31 10:11:33;;;;;;;40.95;30.13;;;;;;;24.07;37.36;101524.25;4683561;30;20046;-75
2021/03/31 10:14:55;;;;;;;44.38;32.22;;;;;;;24.08;37.62;101519.56;4690423;30;20058;-77
2021/03/31 10:17:59;;;;;;;40.03;31.08;;;;;;;24.24;37.89;101519.34;4700253;30;20414;-76
2021/03/31 10:21:05;;;;;;;40.10;27.45;;;;;;;23.80;37.10;101513.97;4709450;30;20413;-75
2021/03/31 10:24:13;;;;;;;40.70;28.52;;;;;;;23.71;36.81;101513.22;4700693;30;20425;-78
2021/03/31 10:27:41;;;;;;;39.42;28.98;;;;;;;23.88;37.93;101509.22;4700475;30;20058;-75
2021/03/31 10:30:45;;;;;;;39.75;30.25;;;;;;;23.84;37.89;101507.91;4700509;30;20506;-76
2021/03/31 10:33:50;;;;;;;41.70;34.13;;;;;;;23.32;39.57;101507.19;4699996;30;20065;-75
2021/03/31 10:54:01;;;;;;;40.28;31.73;;;;;;;23.38;38.77;101484.50;4750227;30;20052;-76
2021/03/31 10:57:15;;;;;;;43.53;31.02;;;;;;;23.12;38.87;101492.34;4750099;30;20496;-74
2021/03/31 11:00:20;;;;;;;41.67;30.50;;;;;;;22.98;39.82;101477.63;4750369;30;20056;-76
2021/03/31 11:03:26;;;;;;;32.40;26.08;;;;;;;22.94;38.38;101473.53;4750406;30;20063;-74
2021/03/31 11:06:31;;;;;;;42.40;31.02;;;;;;;22.80;39.44;101477.13;4750278;30;20056;-78
2021/03/31 11:09:35;;;;;;;43.50;31.27;;;;;;;22.69;40.07;101474.81;4750250;30;20044;-77
2021/03/31 11:12:40;;;;;;;43.17;30.73;;;;;;;22.82;39.73;101465.97;4749840;30;20484;-74
2021/03/31 11:15:45;;;;;;;36.38;29.00;;;;;;;23.07;39.32;101467.41;4747699;30;20056;-75
2021/03/31 11:19:00;;;;;;;42.95;29.10;;;;;;;23.00;39.20;101460.97;4749917;30;20048;-75
2021/03/31 11:28:38;;;;;;;39.90;29.40;;;;;;;23.04;39.71;101441.25;4699085;30;20046;-77
2021/03/31 11:31:42;;;;;;;41.80;32.47;;;;;;;23.06;39.21;101438.34;4698636;30;20050;-76
2021/03/31 11:34:46;;;;;;;44.83;31.42;;;;;;;22.99;39.25;101430.00;4699853;30;20057;-77
2021/03/31 11:37:51;;;;;;;45.10;30.77;;;;;;;23.02;40.02;101426.88;4699501;30;20439;-76
2021/03/31 11:40:56;;;;;;;45.50;31.73;;;;;;;23.06;40.09;101422.72;4699366;30;20053;-75
2021/03/31 11:44:00;;;;;;;39.47;30.42;;;;;;;23.19;40.10;101417.44;4699807;30;20058;-78
2021/03/31 11:47:05;;;;;;;55.80;30.20;;;;;;;23.26;39.78;101420.25;4699482;30;20054;-75
2021/03/31 11:50:09;;;;;;;44.72;31.73;;;;;;;22.91;39.73;101412.84;4702474;30;20057;-76
2021/03/31 11:53:14;;;;;;;41.13;30.85;;;;;;;22.82;40.32;101400.25;4700903;30;20058;-75
2021/03/31 11:56:18;;;;;;;36.97;29.23;;;;;;;22.93;40.50;101408.00;4701964;30;20053;-75
2021/03/31 11:59:23;;;;;;;45.17;30.13;;;;;;;22.90;40.47;101398.28;4702387;30;20054;-77
2021/03/31 12:02:27;;;;;;;42.90;31.02;;;;;;;22.83;40.93;101389.13;4703299;30;20053;-75
2021/03/31 12:05:32;;;;;;;41.17;31.13;;;;;;;22.81;40.74;101385.75;4703208;30;20414;-75
2021/03/31 12:08:37;;;;;;;39.65;28.85;;;;;;;22.84;41.32;101379.84;4703212;30;20412;-74
2021/03/31 12:11:42;;;;;;;37.90;29.38;;;;;;;22.91;40.74;101377.22;4703180;30;20053;-75
2021/03/31 12:14:47;;;;;;;35.72;27.95;;;;;;;22.84;40.10;101376.28;4701654;30;20083;-75
2021/03/31 12:17:51;;;;;;;39.58;26.70;;;;;;;22.83;39.53;101366.38;4703098;30;20046;-78
2021/03/31 12:20:55;;;;;;;34.63;26.02;;;;;;;23.00;39.51;101363.25;4702159;30;20483;-75
2021/03/31 12:24:00;;;;;;;34.13;26.02;;;;;;;22.95;39.26;101354.75;4702837;30;20053;-78
2021/03/31 12:27:08;;;;;;;36.08;24.33;;;;;;;23.12;38.90;101352.63;4702164;30;20050;-79
2021/03/31 12:30:22;;;;;;;34.92;24.17;;;;;;;23.23;38.68;101352.16;4702199;30;20053;-79
2021/03/31 12:33:27;;;;;;;38.60;25.05;;;;;;;23.05;38.42;101338.88;4702500;30;20494;-75
2021/03/31 12:36:31;;;;;;;33.38;23.50;;;;;;;22.99;37.74;101338.75;4702484;30;20053;-73
2021/03/31 12:39:35;;;;;;;37.47;23.23;;;;;;;22.88;37.70;101333.78;4701800;30;20057;-75
2021/03/31 12:42:41;;;;;;;29.30;22.75;;;;;;;22.90;38.06;101323.50;4702706;30;20049;-75
2021/03/31 12:45:45;;;;;;;34.25;22.77;;;;;;;22.89;37.31;101321.78;4694543;30;20077;-76
2021/03/31 12:48:49;;;;;;;35.95;23.88;;;;;;;23.05;38.09;101316.09;4690499;30;20050;-77
2021/03/31 12:52:01;;;;;;;34.20;23.15;;;;;;;23.04;38.19;101315.25;4701086;30;20049;-74
2021/03/31 12:55:09;;;;;;;36.22;24.08;;;;;;;23.11;37.54;101316.16;4701639;30;20061;-76
2021/03/31 12:58:18;;;;;;;40.75;28.23;;;;;;;23.12;38.96;101312.41;4701782;30;20050;-76
2021/03/31 13:01:24;;;;;;;40.72;28.77;;;;;;;23.20;40.04;101306.81;4700922;30;20062;-75
2021/03/31 13:04:29;;;;;;;40.72;30.70;;;;;;;23.20;40.76;101295.00;4700723;30;20046;-74
2021/03/31 13:07:33;;;;;;;42.97;31.02;;;;;;;23.20;41.09;101295.00;4701290;30;20149;-74
2021/03/31 13:10:40;;;;;;;48.67;32.75;;;;;;;23.20;40.65;101289.53;4701234;30;20506;-77
2021/03/31 13:17:11;;;;;;;41.40;30.13;;;;;;;23.31;40.52;101284.38;4701944;30;20050;-76
2021/03/31 13:33:54;;;;;;;41.28;28.30;;;;;;;23.22;40.01;101271.00;4733198;30;20698;-75
2021/03/31 13:37:21;;;;;;;46.17;32.42;;;;;;;23.24;39.89;101267.03;4720234;30;20052;-76
2021/03/31 13:40:26;;;;;;;60.05;31.08;;;;;;;23.26;39.86;101256.72;4724639;30;20049;-74
2021/03/31 13:43:30;;;;;;;45.28;28.92;;;;;;;23.25;39.90;101252.28;4716455;30;20057;-74
2021/03/31 13:46:38;;;;;;;41.60;28.30;;;;;;;23.25;39.26;101248.69;4731048;30;20052;-74
2021/03/31 13:49:55;;;;;;;44.63;30.17;;;;;;;23.25;39.08;101244.06;4733650;30;20049;-74
2021/03/31 13:53:00;;;;;;;42.20;28.35;;;;;;;23.33;38.39;101242.25;4733855;30;20412;-74
2021/03/31 13:56:13;;;;;;;40.75;28.13;;;;;;;23.33;38.52;101244.97;4733212;30;20548;-74
2021/03/31 13:59:18;;;;;;;44.72;29.85;;;;;;;23.35;38.45;101229.19;4693104;30;20490;-74
2021/03/31 14:02:23;;;;;;;31.77;23.38;;;;;;;23.40;39.17;101238.56;4709679;30;20105;-75
2021/03/31 14:05:27;;;;;;;39.17;26.75;;;;;;;23.50;37.93;101233.59;4696114;30;20415;-76
2021/03/31 14:08:31;;;;;;;43.30;26.63;;;;;;;23.43;37.61;101224.44;4683529;30;20042;-75
2021/03/31 14:11:35;;;;;;;37.10;26.88;;;;;;;23.49;37.71;101225.56;4683056;30;20046;-76
2021/03/31 14:14:39;;;;;;;41.47;27.90;;;;;;;23.48;37.37;101221.94;4682840;30;20058;-74
2021/03/31 14:17:44;;;;;;;39.95;28.13;;;;;;;23.41;37.41;101223.78;4695241;30;20497;-77
2021/03/31 14:20:49;;;;;;;41.25;27.88;;;;;;;23.47;37.41;101211.19;4700787;30;20041;-75
2021/03/31 14:23:54;;;;;;;46.95;29.33;;;;;;;23.43;38.25;101212.66;4700399;30;20053;-75
2021/03/31 14:26:59;;;;;;;46.03;31.77;;;;;;;23.41;38.20;101212.81;4683316;30;20403;-75
2021/03/31 14:30:07;;;;;;;45.08;32.38;;;;;;;23.49;37.65;101209.97;4683058;30;20053;-75
2021/03/31 14:33:12;;;;;;;42.83;29.52;;;;;;;23.56;38.15;101205.38;4683058;30;20062;-75
2021/03/31 14:36:16;;;;;;;43.17;30.60;;;;;;;23.53;38.10;101197.53;4686524;30;20053;-75
2021/03/31 14:39:21;;;;;;;46.67;32.38;;;;;;;23.51;38.45;101196.03;4700406;30;20406;-76
2021/03/31 14:42:25;;;;;;;47.83;31.63;;;;;;;23.52;38.18;101182.16;4699754;30;20153;-76
2021/03/31 14:45:30;;;;;;;47.92;31.52;;;;;;;23.52;38.71;101186.78;4700112;30;20061;-75
2021/03/31 14:48:36;;;;;;;44.60;30.42;;;;;;;23.55;38.66;101184.50;4682928;30;20050;-75
2021/03/31 15:01:32;;;;;;;49.80;33.10;;;;;;;23.58;38.45;101169.56;4682909;30;20414;-75
2021/03/31 15:04:39;;;;;;;42.33;30.90;;;;;;;23.56;38.29;101161.50;4683051;30;20045;-74
2021/03/31 15:07:43;;;;;;;44.35;32.88;;;;;;;23.49;38.38;101157.88;4682892;30;20050;-74
2021/03/31 15:10:48;;;;;;;42.75;32.33;;;;;;;23.49;37.64;101146.91;4682483;30;20050;-75
2021/03/31 15:13:52;;;;;;;50.17;31.45;;;;;;;23.51;38.53;101155.78;4682705;30;20061;-75
2021/03/31 15:16:57;;;;;;;50.60;30.80;;;;;;;23.50;38.53;101148.63;4681887;30;20486;-74
2021/03/31 15:20:22;;;;;;;43.33;29.08;;;;;;;23.62;38.63;101148.91;4682664;30;20054;-75
2021/03/31 15:26:35;;;;;;;39.80;30.83;;;;;;;23.59;38.39;101144.69;4703229;30;20046;-75
2021/03/31 15:29:39;;;;;;;42.67;30.55;;;;;;;23.63;38.39;101135.00;4703516;30;20516;-75
2021/03/31 15:32:44;;;;;;;39.88;29.10;;;;;;;23.70;38.66;101127.66;4703321;30;20482;-74
2021/03/31 15:35:48;;;;;;;48.45;30.45;;;;;;;23.58;38.40;101123.78;4703698;30;20498;-75
2021/03/31 15:38:52;;;;;;;40.70;28.88;;;;;;;23.62;39.13;101125.09;4703822;30;20053;-75
2021/03/31 15:41:59;;;;;;;38.50;26.80;;;;;;;23.66;38.94;101125.53;4682779;30;20053;-75
2021/03/31 15:45:07;;;;;;;43.97;30.85;;;;;;;23.55;38.60;101120.63;4682599;30;20054;-74
2021/03/31 15:48:12;;;;;;;44.33;32.13;;;;;;;23.60;38.15;101118.94;4691613;30;20054;-76
2021/03/31 15:51:16;;;;;;;43.20;31.60;;;;;;;23.55;38.58;101115.13;4702668;30;20410;-78
2021/03/31 15:54:21;;;;;;;39.15;25.95;;;;;;;23.55;39.29;101110.50;4702621;30;20050;-79
2021/03/31 15:57:25;;;;;;;41.92;30.63;;;;;;;23.56;38.46;101106.69;4701762;30;20050;-77
2021/03/31 16:00:30;;;;;;;46.70;30.63;;;;;;;23.50;38.66;101102.03;4702816;30;20041;-75
2021/03/31 16:03:35;;;;;;;52.25;31.98;;;;;;;23.47;38.92;101102.44;4702320;30;20402;-76
2021/03/31 16:10:07;;;;;;;49.38;31.23;;;;;;;23.44;38.84;101094.59;4703705;30;20058;-74
2021/03/31 16:13:12;;;;;;;43.40;28.83;;;;;;;23.44;38.71;101091.84;4703110;30;20070;-74
2021/03/31 16:16:16;;;;;;;41.38;28.17;;;;;;;23.41;39.50;101081.28;4703594;30;20054;-74
2021/03/31 16:19:21;;;;;;;42.67;29.77;;;;;;;23.30;39.54;101076.34;4702737;30;20049;-75
2021/03/31 16:22:27;;;;;;;39.47;26.85;;;;;;;23.37;39.08;101079.16;4703578;30;20053;-73
2021/03/31 16:25:32;;;;;;;40.58;26.63;;;;;;;23.35;39.49;101079.34;4703701;30;20474;-74
2021/03/31 16:28:52;;;;;;;37.05;26.73;;;;;;;23.34;39.19;101080.38;4703218;30;20049;-73
2021/03/31 16:31:57;;;;;;;39.05;25.95;;;;;;;23.33;39.15;101081.44;4703260;30;20053;-74
2021/03/31 16:35:02;;;;;;;39.83;30.17;;;;;;;23.30;39.59;101079.09;4701942;30;20050;-74
2021/03/31 16:38:09;;;;;;;40.53;24.70;;;;;;;23.26;40.61;101080.50;4703372;30;20045;-73
2021/03/31 16:41:13;;;;;;;47.10;29.85;;;;;;;23.20;39.70;101084.06;4702094;30;20474;-74
2021/03/31 16:44:18;;;;;;;41.42;28.88;;;;;;;23.21;39.45;101088.47;4703312;30;20061;-74
2021/03/31 16:47:24;;;;;;;47.50;24.88;;;;;;;23.16;40.15;101080.00;4702659;30;20046;-84
2021/03/31 16:50:28;;;;;;;38.88;23.60;;;;;;;23.11;40.90;101069.66;4707400;30;20050;-74
2021/03/31 16:53:33;;;;;;;38.95;26.23;;;;;;;23.04;40.69;101078.84;4684641;30;20050;-78
2021/03/31 16:56:38;;;;;;;38.65;26.58;;;;;;;22.98;40.86;101074.19;4684840;30;20050;-78
2021/03/31 16:59:42;;;;;;;38.15;28.05;;;;;;;22.92;40.54;101078.56;4685476;30;20058;-76
2021/03/31 17:02:47;;;;;;;38.22;26.92;;;;;;;22.88;41.14;101068.19;4684937;30;20403;-77
2021/03/31 17:05:51;;;;;;;46.22;28.70;;;;;;;22.80;41.25;101077.41;4685179;30;20050;-76
2021/03/31 17:08:55;;;;;;;39.75;27.05;;;;;;;22.77;41.72;101072.31;4684052;30;20058;-79
2021/03/31 17:12:00;;;;;;;42.40;26.83;;;;;;;22.68;41.73;101070.75;4685096;30;20058;-80
2021/03/31 17:15:05;;;;;;;40.38;25.95;;;;;;;22.60;42.36;101068.97;4684669;30;20057;-78
2021/03/31 17:18:11;;;;;;;40.63;27.05;;;;;;;22.50;42.60;101068.44;4685093;30;20411;-77
2021/03/31 17:21:17;;;;;;;41.13;27.27;;;;;;;22.42;42.73;101062.22;4685195;30;20053;-78
2021/03/31 17:24:21;;;;;;;43.90;27.75;;;;;;;22.31;43.04;101065.47;4684037;30;20467;-77
2021/03/31 17:27:26;;;;;;;41.70;27.85;;;;;;;22.24;43.09;101057.22;4684903;30;20058;-78
2021/03/31 17:30:32;;;;;;;43.10;28.63;;;;;;;22.16;43.26;101064.66;4685117;30;20479;-77
2021/03/31 17:33:37;;;;;;;42.65;28.48;;;;;;;22.08;43.58;101060.16;4685010;30;20054;-78
2021/03/31 17:36:41;;;;;;;45.33;30.23;;;;;;;21.99;43.81;101066.78;4684975;30;20045;-75
2021/03/31 17:39:46;;;;;;;44.22;31.00;;;;;;;21.86;44.08;101059.25;4683503;30;20057;-75
2021/03/31 17:42:50;;;;;;;41.63;27.50;;;;;;;21.78;44.95;101059.31;4684684;30;20058;-76
2021/03/31 17:45:55;;;;;;;47.85;28.10;;;;;;;21.70;45.00;101072.25;4673556;30;20058;-77
2021/03/31 17:49:01;;;;;;;44.70;29.33;;;;;;;21.60;45.82;101066.22;4683988;30;20058;-77
2021/03/31 17:52:12;;;;;;;50.78;27.80;;;;;;;21.51;45.71;101061.88;4684274;30;20058;-77
2021/03/31 17:55:21;;;;;;;80.25;53.97;;;;;;;21.39;46.77;101059.63;4683791;30;20054;-76
2021/03/31 17:58:27;;;;;;;56.05;37.28;;;;;;;21.29;47.18;101061.78;4683003;30;20050;-76
2021/03/31 18:01:38;;;;;;;46.80;32.03;;;;;;;21.21;47.66;101061.84;4683066;30;20049;-76
2021/03/31 18:04:43;;;;;;;50.53;27.67;;;;;;;21.11;48.15;101057.72;4683569;30;20046;-78
2021/03/31 18:07:54;;;;;;;49.05;27.27;;;;;;;21.07;48.46;101064.56;4692717;30;20045;-77
2021/03/31 18:11:04;;;;;;;54.15;27.63;;;;;;;20.99;49.22;101073.63;4674160;30;20046;-75
2021/03/31 18:14:09;;;;;;;53.17;27.17;;;;;;;20.88;49.73;101073.25;4673412;30;20046;-76
2021/03/31 18:17:15;;;;;;;42.97;25.83;;;;;;;20.75;49.92;101071.97;4693727;30;20065;-75
2021/03/31 18:20:25;;;;;;;44.05;28.95;;;;;;;20.59;49.89;101066.63;4684467;30;20050;-81
2021/03/31 18:23:31;;;;;;;52.22;30.13;;;;;;;20.57;49.53;101071.44;4683045;30;20050;-76
2021/03/31 18:26:35;;;;;;;60.00;32.70;;;;;;;20.47;49.21;101084.47;4683853;30;20058;-74
2021/03/31 18:29:55;;;;;;;50.15;33.05;;;;;;;20.39;49.14;101078.22;4683450;30;20050;-79
2021/03/31 18:33:03;;;;;;;54.58;33.53;;;;;;;20.27;49.10;101077.75;4684382;30;20050;-79
2021/03/31 18:36:11;;;;;;;54.03;33.20;;;;;;;20.17;49.40;101087.19;4682871;30;20495;-82
2021/03/31 18:39:16;;;;;;;51.53;33.72;;;;;;;20.03;50.17;101077.88;4683758;30;20475;-82
2021/03/31 18:42:25;;;;;;;57.63;35.72;;;;;;;19.94;50.12;101077.09;4683818;30;20046;-81
2021/03/31 18:45:32;;;;;;;54.97;36.60;;;;;;;19.83;50.26;101080.19;4683294;30;20049;-80
2021/03/31 18:48:38;;;;;;;56.22;36.47;;;;;;;19.76;50.66;101095.53;4683797;30;20419;-78
2021/03/31 18:51:43;;;;;;;56.30;37.25;;;;;;;19.65;50.67;101087.75;4683581;30;20058;-78
2021/03/31 18:54:48;;;;;;;56.65;36.55;;;;;;;19.55;51.20;101098.00;4682865;30;20054;-75
2021/03/31 18:57:53;;;;;;;46.28;33.95;;;;;;;19.52;51.90;101095.63;4688284;30;20417;-75
2021/03/31 19:00:57;;;;;;;46.40;32.35;;;;;;;19.39;52.39;101095.31;4699741;30;20483;-74
2021/03/31 19:04:02;;;;;;;45.95;30.83;;;;;;;19.26;52.75;101100.38;4700592;30;20061;-74
2021/03/31 19:07:06;;;;;;;44.58;30.83;;;;;;;19.19;53.16;101102.97;4700474;30;20057;-75
2021/03/31 19:13:37;;;;;;;59.75;39.20;;;;;;;18.97;53.51;101102.78;4700142;30;20057;-73
2021/03/31 19:16:42;;;;;;;44.03;30.77;;;;;;;18.82;53.51;101102.63;4700434;30;20054;-78
2021/03/31 19:19:46;;;;;;;44.55;28.98;;;;;;;18.70;54.25;101096.69;4700223;30;20054;-81
2021/03/31 19:22:50;;;;;;;39.33;28.85;;;;;;;18.61;54.67;101100.44;4700242;30;20042;-79
2021/03/31 19:25:55;;;;;;;44.17;29.08;;;;;;;18.53;54.32;101092.25;4700338;30;20050;-79
2021/03/31 19:28:59;;;;;;;42.80;29.25;;;;;;;18.48;54.58;101097.34;4698930;30;20045;-80
2021/03/31 19:32:05;;;;;;;45.25;29.75;;;;;;;18.33;54.94;101093.53;4700382;30;20398;-79
2021/03/31 19:35:10;;;;;;;49.63;29.42;;;;;;;18.28;55.20;101104.06;4699109;30;20057;-74
2021/03/31 19:38:15;;;;;;;39.75;27.83;;;;;;;18.18;55.24;101093.34;4700443;30;20053;-74
2021/03/31 19:41:19;;;;;;;37.05;27.20;;;;;;;18.09;55.32;101091.63;4708988;30;20046;-75
2021/03/31 19:44:24;;;;;;;38.58;28.50;;;;;;;17.99;55.42;101098.19;4700095;30;20050;-75
2021/03/31 19:47:30;;;;;;;37.97;28.10;;;;;;;17.94;55.78;101095.97;4700604;30;20414;-76
2021/03/31 19:50:41;;;;;;;42.47;28.85;;;;;;;17.83;56.09;101090.81;4700368;30;20045;-80
2021/03/31 19:53:49;;;;;;;39.63;26.27;;;;;;;17.73;56.24;101090.09;4700001;30;20053;-75
2021/03/31 19:56:53;;;;;;;39.88;28.20;;;;;;;17.66;56.43;101093.63;4699857;30;20046;-77
2021/03/31 19:59:57;;;;;;;42.95;29.85;;;;;;;17.63;56.57;101091.25;4700073;30;20050;-75
2021/03/31 20:03:03;;;;;;;40.10;27.92;;;;;;;17.52;56.83;101087.81;4699851;30;20054;-76
2021/03/31 20:06:08;;;;;;;42.78;29.63;;;;;;;17.51;56.87;101082.47;4709219;30;20054;-75
2021/03/31 20:09:12;;;;;;;37.53;28.02;;;;;;;17.48;56.73;101083.66;4700147;30;20050;-78
2021/03/31 20:12:17;;;;;;;39.33;28.20;;;;;;;17.44;56.46;101084.16;4702295;30;20053;-75
2021/03/31 20:15:21;;;;;;;40.78;30.10;;;;;;;17.42;56.35;101078.88;4703023;30;20050;-79
2021/03/31 20:18:36;;;;;;;42.63;29.80;;;;;;;17.39;56.44;101079.22;4703143;30;20406;-77
2021/03/31 20:21:41;;;;;;;38.60;29.70;;;;;;;17.39;56.79;101073.78;4703171;30;20046;-75
2021/03/31 20:24:45;;;;;;;43.25;29.63;;;;;;;17.34;56.48;101070.69;4702026;30;20046;-75
2021/03/31 20:27:50;;;;;;;105.80;92.13;;;;;;;17.34;57.17;101070.69;4704093;30;20049;-78
2021/03/31 20:30:55;;;;;;;79.95;67.30;;;;;;;17.40;56.32;101080.91;4703129;30;20045;-77
2021/03/31 20:34:03;;;;;;;48.63;32.90;;;;;;;17.34;56.80;101073.41;4702902;30;20049;-75
2021/03/31 20:37:08;;;;;;;40.75;28.75;;;;;;;17.33;56.24;101082.53;4701332;30;20053;-77
2021/03/31 20:40:13;;;;;;;40.63;29.80;;;;;;;17.29;56.40;101073.03;4702787;30;20403;-74
2021/03/31 20:43:18;;;;;;;38.03;26.95;;;;;;;17.27;56.51;101074.22;4702668;30;20410;-75
2021/03/31 20:46:23;;;;;;;39.55;28.98;;;;;;;17.24;56.45;101069.94;4702588;30;20041;-77
2021/03/31 20:49:27;;;;;;;40.22;28.25;;;;;;;17.23;56.53;101068.22;4701443;30;20067;-79
2021/03/31 20:52:31;;;;;;;40.45;26.52;;;;;;;17.24;56.31;101059.09;4703017;30;20057;-77
2021/03/31 20:55:37;;;;;;;39.17;27.15;;;;;;;17.21;56.75;101064.84;4702474;30;20062;-75
2021/03/31 20:58:42;;;;;;;38.55;26.35;;;;;;;17.27;56.14;101066.06;4682712;30;20054;-75
2021/03/31 21:01:50;;;;;;;37.95;26.20;;;;;;;17.24;56.18;101063.66;4701509;30;20054;-75
2021/03/31 21:04:55;;;;;;;36.35;25.17;;;;;;;17.24;56.33;101069.09;4710936;30;20061;-77
2021/03/31 21:07:59;;;;;;;35.50;25.30;;;;;;;17.22;56.26;101055.69;4700679;30;20061;-77
2021/03/31 21:11:04;;;;;;;38.75;25.10;;;;;;;17.15;56.27;101054.63;4701321;30;20049;-77
2021/03/31 21:14:09;;;;;;;38.50;24.50;;;;;;;17.15;55.97;101054.63;4701081;30;20058;-78
2021/03/31 21:17:13;;;;;;;34.17;24.10;;;;;;;17.14;55.98;101055.63;4701671;30;20057;-75
2021/03/31 21:20:18;;;;;;;32.67;22.13;;;;;;;17.22;55.65;101057.56;4702317;30;20049;-75
2021/03/31 21:23:22;;;;;;;38.40;23.58;;;;;;;17.20;55.30;101056.88;4702121;30;20049;-77
2021/03/31 21:26:27;;;;;;;44.30;22.90;;;;;;;17.19;55.17;101050.59;4702000;30;20053;-77
2021/03/31 21:29:31;;;;;;;38.28;22.50;;;;;;;17.19;55.31;101063.28;4711394;30;20475;-78
2021/03/31 21:32:37;;;;;;;34.63;22.20;;;;;;;17.14;54.89;101046.63;4701972;30;20065;-77
2021/03/31 21:35:44;;;;;;;33.30;21.15;;;;;;;17.15;55.02;101057.34;4700338;30;20049;-77
2021/03/31 21:38:50;;;;;;;34.10;20.42;;;;;;;17.11;55.21;101047.81;4693462;30;20518;-77
2021/03/31 21:41:55;;;;;;;28.33;20.58;;;;;;;17.08;55.26;101050.88;4684710;30;20054;-77
2021/03/31 21:44:59;;;;;;;27.92;19.67;;;;;;;17.09;54.76;101051.69;4684689;30;20479;-77
2021/03/31 21:48:04;;;;;;;25.67;18.88;;;;;;;17.05;54.97;101050.31;4684599;30;20503;-78
2021/03/31 21:51:09;;;;;;;30.38;19.75;;;;;;;17.07;54.67;101054.56;4693693;30;20054;-78
2021/03/31 21:54:14;;;;;;;30.77;19.80;;;;;;;17.13;55.00;101053.97;4693690;30;20499;-78
2021/03/31 21:57:18;;;;;;;25.92;17.15;;;;;;;17.16;54.91;101061.75;4692226;30;20053;-77
2021/03/31 22:00:26;;;;;;;31.20;19.65;;;;;;;17.09;55.25;101060.69;4701295;30;20050;-78
2021/03/31 22:03:31;;;;;;;28.33;19.88;;;;;;;17.02;55.96;101056.06;4710966;30;20049;-78
2021/03/31 22:06:36;;;;;;;30.77;20.58;;;;;;;16.99;55.72;101050.94;4701082;30;20053;-78
2021/03/31 22:09:44;;;;;;;27.08;18.33;;;;;;;17.00;55.54;101056.22;4701145;30;20413;-77
2021/03/31 22:12:48;;;;;;;29.27;19.67;;;;;;;16.91;55.93;101059.91;4701177;30;20057;-77
2021/03/31 22:15:53;;;;;;;28.23;19.92;;;;;;;16.96;55.27;101054.81;4701332;30;20053;-76
2021/03/31 22:18:58;;;;;;;27.77;18.90;;;;;;;16.84;55.34;101053.38;4694078;30;20053;-78